sensor_id;sensor_type;location;lat;lon;timestamp;temperature;humidity
10492;DHT22;5293;51.464;-2.566;2023-05-14T00:00:24;12.70;99.90
10492;DHT22;5293;51.464;-2.566;2023-05-14T00:02:50;12.60;99.90
10492;DHT22;5293;51.464;-2.566;2023-05-14T00:05:15;12.60;99.90
10492;DHT22;5293;51.464;-2.566;2023-05-14T00:07:41;12.60;99.90
10492;DHT22;5293;51.464;-2.566;2023-05-14T00:10:07;12.60;99.90
10492;DHT22;5293;51.464;-2.566;2023-05-14T00:12:33;12.50;99.90
10492;DHT22;5293;51.464;-2.566;2023-05-14T00:14:59;12.50;99.90
10492;DHT22;5293;51.464;-2.566;2023-05-14T00:17:25;12.50;99.90
10492;DHT22;5293;51.464;-2.566;2023-05-14T00:19:51;12.50;99.90
10492;DHT22;5293;51.464;-2.566;2023-05-14T00:22:16;12.50;99.90
10492;DHT22;5293;51.464;-2.566;2023-05-14T00:24:42;12.50;99.90
10492;DHT22;5293;51.464;-2.566;2023-05-14T00:27:07;12.50;99.90
10492;DHT22;5293;51.464;-2.566;2023-05-14T00:29:34;12.50;99.90
10492;DHT22;5293;51.464;-2.566;2023-05-14T00:31:59;12.50;99.90
10492;DHT22;5293;51.464;-2.566;2023-05-14T00:34:25;12.40;99.90
10492;DHT22;5293;51.464;-2.566;2023-05-14T00:36:51;12.30;99.90
10492;DHT22;5293;51.464;-2.566;2023-05-14T00:39:16;12.30;99.90
10492;DHT22;5293;51.464;-2.566;2023-05-14T00:41:42;12.30;99.90
10492;DHT22;5293;51.464;-2.566;2023-05-14T00:44:08;12.30;99.90
10492;DHT22;5293;51.464;-2.566;2023-05-14T00:46:34;12.30;99.90
10492;DHT22;5293;51.464;-2.566;2023-05-14T00:49:00;12.30;99.90
10492;DHT22;5293;51.464;-2.566;2023-05-14T00:51:25;12.30;99.90
10492;DHT22;5293;51.464;-2.566;2023-05-14T00:53:52;12.20;99.90
10492;DHT22;5293;51.464;-2.566;2023-05-14T00:56:18;12.20;99.90
10492;DHT22;5293;51.464;-2.566;2023-05-14T00:58:44;12.10;99.90
10492;DHT22;5293;51.464;-2.566;2023-05-14T01:01:09;12.10;99.90
10492;DHT22;5293;51.464;-2.566;2023-05-14T01:03:36;12.10;99.90
10492;DHT22;5293;51.464;-2.566;2023-05-14T01:11:39;12.10;99.90
10492;DHT22;5293;51.464;-2.566;2023-05-14T01:14:27;12.00;99.90
10492;DHT22;5293;51.464;-2.566;2023-05-14T01:16:59;12.00;99.90
10492;DHT22;5293;51.464;-2.566;2023-05-14T01:19:40;11.90;99.90
10492;DHT22;5293;51.464;-2.566;2023-05-14T01:22:06;11.90;99.90
10492;DHT22;5293;51.464;-2.566;2023-05-14T01:24:32;11.80;99.90
10492;DHT22;5293;51.464;-2.566;2023-05-14T01:27:14;11.70;99.90
10492;DHT22;5293;51.464;-2.566;2023-05-14T01:29:47;11.70;99.90
10492;DHT22;5293;51.464;-2.566;2023-05-14T01:32:14;11.80;99.90
10492;DHT22;5293;51.464;-2.566;2023-05-14T01:34:42;11.70;99.90
10492;DHT22;5293;51.464;-2.566;2023-05-14T01:37:10;11.70;99.90
10492;DHT22;5293;51.464;-2.566;2023-05-14T01:39:37;11.70;99.90
10492;DHT22;5293;51.464;-2.566;2023-05-14T01:42:04;11.70;99.90
10492;DHT22;5293;51.464;-2.566;2023-05-14T01:44:32;11.70;99.90
10492;DHT22;5293;51.464;-2.566;2023-05-14T01:46:57;11.60;99.90
10492;DHT22;5293;51.464;-2.566;2023-05-14T01:49:23;11.70;99.90
10492;DHT22;5293;51.464;-2.566;2023-05-14T01:51:49;11.80;99.90
10492;DHT22;5293;51.464;-2.566;2023-05-14T01:54:14;11.70;99.90
10492;DHT22;5293;51.464;-2.566;2023-05-14T01:56:40;11.80;99.90
10492;DHT22;5293;51.464;-2.566;2023-05-14T01:59:06;11.70;99.90
10492;DHT22;5293;51.464;-2.566;2023-05-14T02:01:31;11.70;99.90
10492;DHT22;5293;51.464;-2.566;2023-05-14T02:03:58;11.60;99.90
10492;DHT22;5293;51.464;-2.566;2023-05-14T02:06:25;11.60;99.90
10492;DHT22;5293;51.464;-2.566;2023-05-14T02:08:51;11.50;99.90
10492;DHT22;5293;51.464;-2.566;2023-05-14T02:11:17;11.40;99.90
10492;DHT22;5293;51.464;-2.566;2023-05-14T02:13:42;11.40;99.90
10492;DHT22;5293;51.464;-2.566;2023-05-14T02:16:08;11.40;99.90
10492;DHT22;5293;51.464;-2.566;2023-05-14T02:18:34;11.40;99.90
10492;DHT22;5293;51.464;-2.566;2023-05-14T02:20:59;11.40;99.90
10492;DHT22;5293;51.464;-2.566;2023-05-14T02:23:25;11.40;99.90
10492;DHT22;5293;51.464;-2.566;2023-05-14T02:25:51;11.40;99.90
10492;DHT22;5293;51.464;-2.566;2023-05-14T02:28:16;11.50;99.90
10492;DHT22;5293;51.464;-2.566;2023-05-14T02:30:42;11.40;99.90
10492;DHT22;5293;51.464;-2.566;2023-05-14T02:33:07;11.40;99.90
10492;DHT22;5293;51.464;-2.566;2023-05-14T02:35:33;11.30;99.90
10492;DHT22;5293;51.464;-2.566;2023-05-14T02:37:59;11.30;99.90
10492;DHT22;5293;51.464;-2.566;2023-05-14T02:40:24;11.30;99.90
10492;DHT22;5293;51.464;-2.566;2023-05-14T02:42:50;11.30;99.90
10492;DHT22;5293;51.464;-2.566;2023-05-14T02:45:16;11.30;99.90
10492;DHT22;5293;51.464;-2.566;2023-05-14T02:47:41;11.30;99.90
10492;DHT22;5293;51.464;-2.566;2023-05-14T02:50:08;11.30;99.90
10492;DHT22;5293;51.464;-2.566;2023-05-14T02:52:34;11.30;99.90
10492;DHT22;5293;51.464;-2.566;2023-05-14T02:55:01;11.20;99.90
10492;DHT22;5293;51.464;-2.566;2023-05-14T02:57:26;11.30;99.90
10492;DHT22;5293;51.464;-2.566;2023-05-14T02:59:52;11.30;99.90
10492;DHT22;5293;51.464;-2.566;2023-05-14T03:02:18;11.30;99.90
10492;DHT22;5293;51.464;-2.566;2023-05-14T03:04:43;11.20;99.90
10492;DHT22;5293;51.464;-2.566;2023-05-14T03:07:09;11.20;99.90
10492;DHT22;5293;51.464;-2.566;2023-05-14T03:09:35;11.20;99.90
10492;DHT22;5293;51.464;-2.566;2023-05-14T03:12:00;11.20;99.90
10492;DHT22;5293;51.464;-2.566;2023-05-14T03:14:26;11.20;99.90
10492;DHT22;5293;51.464;-2.566;2023-05-14T03:16:52;11.20;99.90
10492;DHT22;5293;51.464;-2.566;2023-05-14T03:19:17;11.20;99.90
10492;DHT22;5293;51.464;-2.566;2023-05-14T03:21:43;11.20;99.90
10492;DHT22;5293;51.464;-2.566;2023-05-14T03:24:08;11.20;99.90
10492;DHT22;5293;51.464;-2.566;2023-05-14T03:26:34;11.10;99.90
10492;DHT22;5293;51.464;-2.566;2023-05-14T03:29:01;11.10;99.90
10492;DHT22;5293;51.464;-2.566;2023-05-14T03:31:26;11.10;99.90
10492;DHT22;5293;51.464;-2.566;2023-05-14T03:33:52;11.10;99.90
10492;DHT22;5293;51.464;-2.566;2023-05-14T03:36:18;11.00;99.90
10492;DHT22;5293;51.464;-2.566;2023-05-14T03:38:43;11.00;99.90
10492;DHT22;5293;51.464;-2.566;2023-05-14T03:41:09;11.00;99.90
10492;DHT22;5293;51.464;-2.566;2023-05-14T03:43:34;10.90;99.90
10492;DHT22;5293;51.464;-2.566;2023-05-14T03:46:00;10.90;99.90
10492;DHT22;5293;51.464;-2.566;2023-05-14T03:48:26;10.80;99.90
10492;DHT22;5293;51.464;-2.566;2023-05-14T03:50:51;10.70;99.90
10492;DHT22;5293;51.464;-2.566;2023-05-14T03:53:17;10.70;99.90
10492;DHT22;5293;51.464;-2.566;2023-05-14T03:55:42;10.70;99.90
10492;DHT22;5293;51.464;-2.566;2023-05-14T03:58:08;10.60;99.90
10492;DHT22;5293;51.464;-2.566;2023-05-14T04:00:41;10.60;99.90
10492;DHT22;5293;51.464;-2.566;2023-05-14T04:03:07;10.70;99.90
10492;DHT22;5293;51.464;-2.566;2023-05-14T04:05:34;10.60;99.90
10492;DHT22;5293;51.464;-2.566;2023-05-14T04:08:00;10.60;99.90
10492;DHT22;5293;51.464;-2.566;2023-05-14T04:10:26;10.60;99.90
10492;DHT22;5293;51.464;-2.566;2023-05-14T04:12:52;10.50;99.90
10492;DHT22;5293;51.464;-2.566;2023-05-14T04:15:19;10.50;99.90
10492;DHT22;5293;51.464;-2.566;2023-05-14T04:17:45;10.50;99.90
10492;DHT22;5293;51.464;-2.566;2023-05-14T04:20:10;10.40;99.90
10492;DHT22;5293;51.464;-2.566;2023-05-14T04:22:36;10.30;99.90
10492;DHT22;5293;51.464;-2.566;2023-05-14T04:25:02;10.30;99.90
10492;DHT22;5293;51.464;-2.566;2023-05-14T04:27:27;10.30;99.90
10492;DHT22;5293;51.464;-2.566;2023-05-14T04:29:53;10.40;99.90
10492;DHT22;5293;51.464;-2.566;2023-05-14T04:32:19;10.30;99.90
10492;DHT22;5293;51.464;-2.566;2023-05-14T04:34:45;10.30;99.90
10492;DHT22;5293;51.464;-2.566;2023-05-14T04:37:11;10.30;99.90
10492;DHT22;5293;51.464;-2.566;2023-05-14T04:39:37;10.30;99.90
10492;DHT22;5293;51.464;-2.566;2023-05-14T04:42:03;10.30;99.90
10492;DHT22;5293;51.464;-2.566;2023-05-14T04:44:29;10.30;99.90
10492;DHT22;5293;51.464;-2.566;2023-05-14T04:46:54;10.30;99.90
10492;DHT22;5293;51.464;-2.566;2023-05-14T04:49:20;10.20;99.90
10492;DHT22;5293;51.464;-2.566;2023-05-14T04:51:46;10.20;99.90
10492;DHT22;5293;51.464;-2.566;2023-05-14T04:54:12;10.20;99.90
10492;DHT22;5293;51.464;-2.566;2023-05-14T04:56:38;10.20;99.90
10492;DHT22;5293;51.464;-2.566;2023-05-14T04:59:04;10.10;99.90
10492;DHT22;5293;51.464;-2.566;2023-05-14T05:01:29;10.00;99.90
10492;DHT22;5293;51.464;-2.566;2023-05-14T05:03:55;10.10;99.90
10492;DHT22;5293;51.464;-2.566;2023-05-14T05:06:22;10.10;99.90
10492;DHT22;5293;51.464;-2.566;2023-05-14T05:08:47;10.10;99.90
10492;DHT22;5293;51.464;-2.566;2023-05-14T05:11:13;10.10;99.90
10492;DHT22;5293;51.464;-2.566;2023-05-14T05:13:38;10.00;99.90
10492;DHT22;5293;51.464;-2.566;2023-05-14T05:16:04;10.10;99.90
10492;DHT22;5293;51.464;-2.566;2023-05-14T05:18:30;10.10;99.90
10492;DHT22;5293;51.464;-2.566;2023-05-14T05:20:56;10.10;99.90
10492;DHT22;5293;51.464;-2.566;2023-05-14T05:23:21;10.00;99.90
10492;DHT22;5293;51.464;-2.566;2023-05-14T05:25:48;9.90;99.90
10492;DHT22;5293;51.464;-2.566;2023-05-14T05:28:15;9.90;99.90
10492;DHT22;5293;51.464;-2.566;2023-05-14T05:30:41;10.00;99.90
10492;DHT22;5293;51.464;-2.566;2023-05-14T05:33:09;10.10;99.90
10492;DHT22;5293;51.464;-2.566;2023-05-14T05:35:35;10.10;99.90
10492;DHT22;5293;51.464;-2.566;2023-05-14T05:38:01;10.20;99.90
10492;DHT22;5293;51.464;-2.566;2023-05-14T05:40:27;10.20;99.90
10492;DHT22;5293;51.464;-2.566;2023-05-14T05:42:53;10.30;99.90
10492;DHT22;5293;51.464;-2.566;2023-05-14T05:45:18;10.40;99.90
10492;DHT22;5293;51.464;-2.566;2023-05-14T05:47:44;10.40;99.90
10492;DHT22;5293;51.464;-2.566;2023-05-14T05:50:10;10.50;99.90
10492;DHT22;5293;51.464;-2.566;2023-05-14T05:52:36;10.30;99.90
10492;DHT22;5293;51.464;-2.566;2023-05-14T05:55:02;10.40;99.90
10492;DHT22;5293;51.464;-2.566;2023-05-14T05:57:28;10.40;99.90
10492;DHT22;5293;51.464;-2.566;2023-05-14T05:59:54;10.50;99.90
10492;DHT22;5293;51.464;-2.566;2023-05-14T06:02:19;10.60;99.90
10492;DHT22;5293;51.464;-2.566;2023-05-14T06:04:45;10.70;99.90
10492;DHT22;5293;51.464;-2.566;2023-05-14T06:07:11;10.70;99.90
10492;DHT22;5293;51.464;-2.566;2023-05-14T06:09:37;10.80;99.90
10492;DHT22;5293;51.464;-2.566;2023-05-14T06:12:03;10.80;99.90
10492;DHT22;5293;51.464;-2.566;2023-05-14T06:14:28;10.70;99.90
10492;DHT22;5293;51.464;-2.566;2023-05-14T06:16:54;10.70;99.90
10492;DHT22;5293;51.464;-2.566;2023-05-14T06:19:20;10.90;99.90
10492;DHT22;5293;51.464;-2.566;2023-05-14T06:21:46;11.00;99.90
10492;DHT22;5293;51.464;-2.566;2023-05-14T06:24:12;11.00;99.90
10492;DHT22;5293;51.464;-2.566;2023-05-14T06:26:37;11.10;99.90
10492;DHT22;5293;51.464;-2.566;2023-05-14T06:29:03;11.10;99.90
10492;DHT22;5293;51.464;-2.566;2023-05-14T06:31:29;11.20;99.90
10492;DHT22;5293;51.464;-2.566;2023-05-14T06:33:54;11.30;99.90
10492;DHT22;5293;51.464;-2.566;2023-05-14T06:36:20;11.20;99.90
10492;DHT22;5293;51.464;-2.566;2023-05-14T06:38:45;11.10;99.90
10492;DHT22;5293;51.464;-2.566;2023-05-14T06:41:11;11.10;99.90
10492;DHT22;5293;51.464;-2.566;2023-05-14T06:43:37;11.10;99.90
10492;DHT22;5293;51.464;-2.566;2023-05-14T06:46:02;11.10;99.90
10492;DHT22;5293;51.464;-2.566;2023-05-14T06:48:28;11.20;99.90
10492;DHT22;5293;51.464;-2.566;2023-05-14T06:50:55;11.30;99.90
10492;DHT22;5293;51.464;-2.566;2023-05-14T06:53:20;11.50;99.90
10492;DHT22;5293;51.464;-2.566;2023-05-14T06:55:47;11.60;99.90
10492;DHT22;5293;51.464;-2.566;2023-05-14T06:58:13;11.70;99.90
10492;DHT22;5293;51.464;-2.566;2023-05-14T07:00:39;11.80;99.90
10492;DHT22;5293;51.464;-2.566;2023-05-14T07:03:05;11.90;99.90
10492;DHT22;5293;51.464;-2.566;2023-05-14T07:05:30;12.00;99.90
10492;DHT22;5293;51.464;-2.566;2023-05-14T07:07:56;11.90;99.90
10492;DHT22;5293;51.464;-2.566;2023-05-14T07:10:22;12.00;99.90
10492;DHT22;5293;51.464;-2.566;2023-05-14T07:12:48;12.10;99.90
10492;DHT22;5293;51.464;-2.566;2023-05-14T07:15:14;12.10;99.90
10492;DHT22;5293;51.464;-2.566;2023-05-14T07:17:40;12.10;99.90
10492;DHT22;5293;51.464;-2.566;2023-05-14T07:20:06;12.30;99.90
10492;DHT22;5293;51.464;-2.566;2023-05-14T07:22:32;12.40;99.90
10492;DHT22;5293;51.464;-2.566;2023-05-14T07:24:57;12.50;99.90
10492;DHT22;5293;51.464;-2.566;2023-05-14T07:27:23;12.50;99.90
10492;DHT22;5293;51.464;-2.566;2023-05-14T07:29:49;12.60;99.90
10492;DHT22;5293;51.464;-2.566;2023-05-14T07:32:15;12.50;99.90
10492;DHT22;5293;51.464;-2.566;2023-05-14T07:34:41;12.60;99.90
10492;DHT22;5293;51.464;-2.566;2023-05-14T07:37:06;12.70;99.90
10492;DHT22;5293;51.464;-2.566;2023-05-14T07:39:32;12.70;99.90
10492;DHT22;5293;51.464;-2.566;2023-05-14T07:41:59;12.80;99.90
10492;DHT22;5293;51.464;-2.566;2023-05-14T07:44:25;13.00;99.90
10492;DHT22;5293;51.464;-2.566;2023-05-14T07:46:50;13.00;99.90
10492;DHT22;5293;51.464;-2.566;2023-05-14T07:49:16;13.00;99.90
10492;DHT22;5293;51.464;-2.566;2023-05-14T07:51:42;13.20;99.90
10492;DHT22;5293;51.464;-2.566;2023-05-14T07:54:07;13.30;99.90
10492;DHT22;5293;51.464;-2.566;2023-05-14T07:56:33;13.20;99.90
10492;DHT22;5293;51.464;-2.566;2023-05-14T07:58:59;13.10;99.90
10492;DHT22;5293;51.464;-2.566;2023-05-14T08:01:24;13.10;99.90
10492;DHT22;5293;51.464;-2.566;2023-05-14T08:03:50;13.30;99.90
10492;DHT22;5293;51.464;-2.566;2023-05-14T08:06:16;13.30;99.90
10492;DHT22;5293;51.464;-2.566;2023-05-14T08:08:42;13.50;99.90
10492;DHT22;5293;51.464;-2.566;2023-05-14T08:11:07;13.60;99.90
10492;DHT22;5293;51.464;-2.566;2023-05-14T08:13:33;13.60;99.90
10492;DHT22;5293;51.464;-2.566;2023-05-14T08:15:59;13.70;99.90
10492;DHT22;5293;51.464;-2.566;2023-05-14T08:18:24;13.80;99.90
10492;DHT22;5293;51.464;-2.566;2023-05-14T08:20:50;13.80;99.90
10492;DHT22;5293;51.464;-2.566;2023-05-14T08:23:16;13.90;99.90
10492;DHT22;5293;51.464;-2.566;2023-05-14T08:25:42;13.80;99.90
10492;DHT22;5293;51.464;-2.566;2023-05-14T08:28:07;13.90;99.90
10492;DHT22;5293;51.464;-2.566;2023-05-14T08:30:33;13.90;99.90
10492;DHT22;5293;51.464;-2.566;2023-05-14T08:32:59;14.00;99.90
10492;DHT22;5293;51.464;-2.566;2023-05-14T08:35:25;14.20;99.90
10492;DHT22;5293;51.464;-2.566;2023-05-14T08:37:50;14.20;99.90
10492;DHT22;5293;51.464;-2.566;2023-05-14T08:40:16;14.20;99.90
10492;DHT22;5293;51.464;-2.566;2023-05-14T08:42:42;14.20;99.90
10492;DHT22;5293;51.464;-2.566;2023-05-14T08:45:19;14.40;99.90
10492;DHT22;5293;51.464;-2.566;2023-05-14T08:47:49;14.40;99.90
10492;DHT22;5293;51.464;-2.566;2023-05-14T08:50:16;14.60;99.90
10492;DHT22;5293;51.464;-2.566;2023-05-14T08:52:43;14.90;99.90
10492;DHT22;5293;51.464;-2.566;2023-05-14T08:55:10;15.10;99.90
10492;DHT22;5293;51.464;-2.566;2023-05-14T08:57:36;15.20;99.90
10492;DHT22;5293;51.464;-2.566;2023-05-14T09:00:03;15.40;99.90
10492;DHT22;5293;51.464;-2.566;2023-05-14T09:02:33;15.50;99.90
10492;DHT22;5293;51.464;-2.566;2023-05-14T09:05:01;15.50;99.90
10492;DHT22;5293;51.464;-2.566;2023-05-14T09:07:27;15.70;99.90
10492;DHT22;5293;51.464;-2.566;2023-05-14T09:09:53;15.80;99.90
10492;DHT22;5293;51.464;-2.566;2023-05-14T09:12:20;15.80;99.90
10492;DHT22;5293;51.464;-2.566;2023-05-14T09:14:47;15.70;99.90
10492;DHT22;5293;51.464;-2.566;2023-05-14T09:17:13;15.80;99.90
10492;DHT22;5293;51.464;-2.566;2023-05-14T09:19:39;15.80;99.90
10492;DHT22;5293;51.464;-2.566;2023-05-14T09:22:12;15.90;99.90
10492;DHT22;5293;51.464;-2.566;2023-05-14T09:24:38;15.70;99.90
10492;DHT22;5293;51.464;-2.566;2023-05-14T09:27:05;15.60;99.90
10492;DHT22;5293;51.464;-2.566;2023-05-14T09:29:31;15.70;99.90
10492;DHT22;5293;51.464;-2.566;2023-05-14T09:31:57;15.90;99.90
10492;DHT22;5293;51.464;-2.566;2023-05-14T09:34:28;16.10;99.90
10492;DHT22;5293;51.464;-2.566;2023-05-14T09:37:07;16.00;99.90
10492;DHT22;5293;51.464;-2.566;2023-05-14T09:39:34;15.90;99.90
10492;DHT22;5293;51.464;-2.566;2023-05-14T09:42:03;15.80;99.90
10492;DHT22;5293;51.464;-2.566;2023-05-14T09:44:29;16.10;99.90
10492;DHT22;5293;51.464;-2.566;2023-05-14T09:46:55;16.30;99.90
10492;DHT22;5293;51.464;-2.566;2023-05-14T09:49:21;16.30;99.90
10492;DHT22;5293;51.464;-2.566;2023-05-14T09:51:48;16.20;99.90
10492;DHT22;5293;51.464;-2.566;2023-05-14T09:54:13;16.40;99.90
10492;DHT22;5293;51.464;-2.566;2023-05-14T09:56:39;16.60;99.90
10492;DHT22;5293;51.464;-2.566;2023-05-14T09:59:05;16.70;99.90
10492;DHT22;5293;51.464;-2.566;2023-05-14T10:01:32;17.00;99.90
10492;DHT22;5293;51.464;-2.566;2023-05-14T10:03:58;16.80;99.90
10492;DHT22;5293;51.464;-2.566;2023-05-14T10:06:26;17.10;99.90
10492;DHT22;5293;51.464;-2.566;2023-05-14T10:08:56;16.90;99.90
10492;DHT22;5293;51.464;-2.566;2023-05-14T10:11:29;16.70;99.90
10492;DHT22;5293;51.464;-2.566;2023-05-14T10:14:05;17.20;99.90
10492;DHT22;5293;51.464;-2.566;2023-05-14T10:16:38;17.40;99.90
10492;DHT22;5293;51.464;-2.566;2023-05-14T10:19:09;17.70;99.90
10492;DHT22;5293;51.464;-2.566;2023-05-14T10:21:36;17.80;99.90
10492;DHT22;5293;51.464;-2.566;2023-05-14T10:24:03;17.80;99.90
10492;DHT22;5293;51.464;-2.566;2023-05-14T10:26:31;17.90;99.90
10492;DHT22;5293;51.464;-2.566;2023-05-14T10:28:57;17.90;99.90
10492;DHT22;5293;51.464;-2.566;2023-05-14T10:34:33;18.00;99.90
10492;DHT22;5293;51.464;-2.566;2023-05-14T10:37:07;18.00;99.90
10492;DHT22;5293;51.464;-2.566;2023-05-14T10:42:25;18.20;99.90
10492;DHT22;5293;51.464;-2.566;2023-05-14T10:44:56;18.10;99.90
10492;DHT22;5293;51.464;-2.566;2023-05-14T10:47:27;18.10;99.90
10492;DHT22;5293;51.464;-2.566;2023-05-14T10:49:55;18.10;99.90
10492;DHT22;5293;51.464;-2.566;2023-05-14T10:52:22;18.10;99.90
10492;DHT22;5293;51.464;-2.566;2023-05-14T10:54:52;18.20;99.90
10492;DHT22;5293;51.464;-2.566;2023-05-14T10:57:19;18.10;99.90
10492;DHT22;5293;51.464;-2.566;2023-05-14T10:59:49;18.10;99.90
10492;DHT22;5293;51.464;-2.566;2023-05-14T11:02:19;18.10;99.90
10492;DHT22;5293;51.464;-2.566;2023-05-14T11:05:12;18.00;99.90
10492;DHT22;5293;51.464;-2.566;2023-05-14T11:07:41;18.10;99.90
10492;DHT22;5293;51.464;-2.566;2023-05-14T11:12:35;18.00;99.90
10492;DHT22;5293;51.464;-2.566;2023-05-14T11:15:06;17.80;99.90
10492;DHT22;5293;51.464;-2.566;2023-05-14T11:17:34;17.70;99.90
10492;DHT22;5293;51.464;-2.566;2023-05-14T11:20:00;17.80;99.90
10492;DHT22;5293;51.464;-2.566;2023-05-14T11:22:26;17.80;99.90
10492;DHT22;5293;51.464;-2.566;2023-05-14T11:24:52;17.70;99.90
10492;DHT22;5293;51.464;-2.566;2023-05-14T11:27:19;17.70;99.90
10492;DHT22;5293;51.464;-2.566;2023-05-14T11:29:46;17.80;99.90
10492;DHT22;5293;51.464;-2.566;2023-05-14T11:32:14;18.00;99.90
10492;DHT22;5293;51.464;-2.566;2023-05-14T11:34:40;18.10;99.90
10492;DHT22;5293;51.464;-2.566;2023-05-14T11:37:07;18.20;99.90
10492;DHT22;5293;51.464;-2.566;2023-05-14T11:39:34;18.20;99.90
10492;DHT22;5293;51.464;-2.566;2023-05-14T11:42:11;18.20;99.90
10492;DHT22;5293;51.464;-2.566;2023-05-14T11:44:39;18.30;99.90
10492;DHT22;5293;51.464;-2.566;2023-05-14T11:47:06;18.30;99.90
10492;DHT22;5293;51.464;-2.566;2023-05-14T11:49:31;18.30;99.90
10492;DHT22;5293;51.464;-2.566;2023-05-14T11:52:09;18.10;99.90
10492;DHT22;5293;51.464;-2.566;2023-05-14T11:54:36;18.10;99.90
10492;DHT22;5293;51.464;-2.566;2023-05-14T11:57:07;18.10;99.90
10492;DHT22;5293;51.464;-2.566;2023-05-14T11:59:33;18.10;99.90
10492;DHT22;5293;51.464;-2.566;2023-05-14T12:02:00;18.00;99.90
10492;DHT22;5293;51.464;-2.566;2023-05-14T12:04:27;18.20;99.90
10492;DHT22;5293;51.464;-2.566;2023-05-14T12:06:53;18.20;99.90
10492;DHT22;5293;51.464;-2.566;2023-05-14T12:09:20;18.00;99.90
10492;DHT22;5293;51.464;-2.566;2023-05-14T12:11:47;18.00;99.90
10492;DHT22;5293;51.464;-2.566;2023-05-14T12:14:36;18.10;99.90
10492;DHT22;5293;51.464;-2.566;2023-05-14T12:17:02;18.20;99.90
10492;DHT22;5293;51.464;-2.566;2023-05-14T12:19:29;18.20;99.90
10492;DHT22;5293;51.464;-2.566;2023-05-14T12:21:55;18.20;99.90
10492;DHT22;5293;51.464;-2.566;2023-05-14T12:24:25;18.40;99.90
10492;DHT22;5293;51.464;-2.566;2023-05-14T12:26:51;18.40;99.90
10492;DHT22;5293;51.464;-2.566;2023-05-14T12:29:19;18.40;99.90
10492;DHT22;5293;51.464;-2.566;2023-05-14T12:31:49;18.50;99.90
10492;DHT22;5293;51.464;-2.566;2023-05-14T12:34:15;18.60;99.90
10492;DHT22;5293;51.464;-2.566;2023-05-14T12:36:42;18.50;99.90
10492;DHT22;5293;51.464;-2.566;2023-05-14T12:39:08;18.60;99.90
10492;DHT22;5293;51.464;-2.566;2023-05-14T12:41:35;18.70;99.90
10492;DHT22;5293;51.464;-2.566;2023-05-14T12:44:02;18.70;99.90
10492;DHT22;5293;51.464;-2.566;2023-05-14T12:46:28;18.80;99.90
10492;DHT22;5293;51.464;-2.566;2023-05-14T12:48:54;18.90;99.90
10492;DHT22;5293;51.464;-2.566;2023-05-14T12:51:20;19.00;99.90
10492;DHT22;5293;51.464;-2.566;2023-05-14T12:53:46;19.00;99.90
10492;DHT22;5293;51.464;-2.566;2023-05-14T12:56:12;19.00;99.90
10492;DHT22;5293;51.464;-2.566;2023-05-14T12:58:38;19.10;99.90
10492;DHT22;5293;51.464;-2.566;2023-05-14T13:01:04;19.20;99.90
10492;DHT22;5293;51.464;-2.566;2023-05-14T13:03:30;19.20;99.90
10492;DHT22;5293;51.464;-2.566;2023-05-14T13:05:56;19.20;99.90
10492;DHT22;5293;51.464;-2.566;2023-05-14T13:08:22;19.30;99.90
10492;DHT22;5293;51.464;-2.566;2023-05-14T13:10:51;19.20;99.90
10492;DHT22;5293;51.464;-2.566;2023-05-14T13:13:17;19.30;99.90
10492;DHT22;5293;51.464;-2.566;2023-05-14T13:15:43;19.30;99.90
10492;DHT22;5293;51.464;-2.566;2023-05-14T13:18:14;19.40;99.90
10492;DHT22;5293;51.464;-2.566;2023-05-14T13:20:40;19.50;99.90
10492;DHT22;5293;51.464;-2.566;2023-05-14T13:23:06;19.50;99.90
10492;DHT22;5293;51.464;-2.566;2023-05-14T13:25:32;19.40;99.90
10492;DHT22;5293;51.464;-2.566;2023-05-14T13:27:58;19.50;99.90
10492;DHT22;5293;51.464;-2.566;2023-05-14T13:30:23;19.50;99.90
10492;DHT22;5293;51.464;-2.566;2023-05-14T13:32:49;19.40;99.90
10492;DHT22;5293;51.464;-2.566;2023-05-14T13:35:15;19.40;99.90
10492;DHT22;5293;51.464;-2.566;2023-05-14T13:37:42;19.10;99.90
10492;DHT22;5293;51.464;-2.566;2023-05-14T13:40:09;19.10;99.90
10492;DHT22;5293;51.464;-2.566;2023-05-14T13:42:38;19.10;99.90
10492;DHT22;5293;51.464;-2.566;2023-05-14T13:45:06;19.20;99.90
10492;DHT22;5293;51.464;-2.566;2023-05-14T13:47:32;19.30;99.90
10492;DHT22;5293;51.464;-2.566;2023-05-14T13:49:59;19.50;99.90
10492;DHT22;5293;51.464;-2.566;2023-05-14T13:52:25;19.40;99.90
10492;DHT22;5293;51.464;-2.566;2023-05-14T13:54:51;19.50;99.90
10492;DHT22;5293;51.464;-2.566;2023-05-14T13:57:18;19.40;99.90
10492;DHT22;5293;51.464;-2.566;2023-05-14T13:59:45;19.50;99.90
10492;DHT22;5293;51.464;-2.566;2023-05-14T14:02:11;19.50;99.90
10492;DHT22;5293;51.464;-2.566;2023-05-14T14:04:36;19.40;99.90
10492;DHT22;5293;51.464;-2.566;2023-05-14T14:07:03;19.60;99.90
10492;DHT22;5293;51.464;-2.566;2023-05-14T14:09:28;19.80;99.90
10492;DHT22;5293;51.464;-2.566;2023-05-14T14:12:02;19.90;99.90
10492;DHT22;5293;51.464;-2.566;2023-05-14T14:14:28;20.00;99.90
10492;DHT22;5293;51.464;-2.566;2023-05-14T14:16:53;20.10;99.90
10492;DHT22;5293;51.464;-2.566;2023-05-14T14:19:19;20.20;99.90
10492;DHT22;5293;51.464;-2.566;2023-05-14T14:21:45;20.40;99.90
10492;DHT22;5293;51.464;-2.566;2023-05-14T14:24:10;20.50;99.90
10492;DHT22;5293;51.464;-2.566;2023-05-14T14:26:36;20.60;99.90
10492;DHT22;5293;51.464;-2.566;2023-05-14T14:29:02;20.80;99.90
10492;DHT22;5293;51.464;-2.566;2023-05-14T14:31:28;20.90;99.90
10492;DHT22;5293;51.464;-2.566;2023-05-14T14:33:53;21.20;99.90
10492;DHT22;5293;51.464;-2.566;2023-05-14T14:36:19;21.40;99.90
10492;DHT22;5293;51.464;-2.566;2023-05-14T14:38:45;21.30;99.90
10492;DHT22;5293;51.464;-2.566;2023-05-14T14:41:10;21.20;99.90
10492;DHT22;5293;51.464;-2.566;2023-05-14T14:43:37;20.90;99.90
10492;DHT22;5293;51.464;-2.566;2023-05-14T14:46:04;20.70;99.90
10492;DHT22;5293;51.464;-2.566;2023-05-14T14:48:32;20.60;99.90
10492;DHT22;5293;51.464;-2.566;2023-05-14T14:51:07;20.60;99.90
10492;DHT22;5293;51.464;-2.566;2023-05-14T14:53:34;20.50;99.90
10492;DHT22;5293;51.464;-2.566;2023-05-14T14:56:00;20.50;99.90
10492;DHT22;5293;51.464;-2.566;2023-05-14T14:58:26;20.50;99.90
10492;DHT22;5293;51.464;-2.566;2023-05-14T15:00:54;20.50;99.90
10492;DHT22;5293;51.464;-2.566;2023-05-14T15:03:20;20.50;99.90
10492;DHT22;5293;51.464;-2.566;2023-05-14T15:05:46;20.70;99.90
10492;DHT22;5293;51.464;-2.566;2023-05-14T15:08:13;20.40;99.90
10492;DHT22;5293;51.464;-2.566;2023-05-14T15:10:38;20.30;99.90
10492;DHT22;5293;51.464;-2.566;2023-05-14T15:13:06;20.30;99.90
10492;DHT22;5293;51.464;-2.566;2023-05-14T15:15:33;20.20;99.90
10492;DHT22;5293;51.464;-2.566;2023-05-14T15:17:59;20.20;99.90
10492;DHT22;5293;51.464;-2.566;2023-05-14T15:20:25;20.10;99.90
10492;DHT22;5293;51.464;-2.566;2023-05-14T15:22:51;20.10;99.90
10492;DHT22;5293;51.464;-2.566;2023-05-14T15:25:18;20.00;99.90
10492;DHT22;5293;51.464;-2.566;2023-05-14T15:27:44;20.00;99.90
10492;DHT22;5293;51.464;-2.566;2023-05-14T15:30:10;20.00;99.90
10492;DHT22;5293;51.464;-2.566;2023-05-14T15:32:36;19.80;99.90
10492;DHT22;5293;51.464;-2.566;2023-05-14T15:35:02;19.50;99.90
10492;DHT22;5293;51.464;-2.566;2023-05-14T15:37:38;19.20;99.90
10492;DHT22;5293;51.464;-2.566;2023-05-14T15:40:05;19.00;99.90